sensor_id;sensor_type;location;lat;lon;timestamp;P1;durP1;ratioP1;P2;durP2;ratioP2
20884;SDS011;10602;48.000;9.654;2022-08-19T00:01:55;15.33;;;13.87;;
20884;SDS011;10602;48.000;9.654;2022-08-19T00:04:25;17.53;;;15.83;;
20884;SDS011;10602;48.000;9.654;2022-08-19T00:06:54;17.73;;;16.03;;
20884;SDS011;10602;48.000;9.654;2022-08-19T00:09:23;18.97;;;16.97;;
20884;SDS011;10602;48.000;9.654;2022-08-19T00:11:51;17.63;;;15.93;;
20884;SDS011;10602;48.000;9.654;2022-08-19T00:14:21;19.70;;;17.60;;
20884;SDS011;10602;48.000;9.654;2022-08-19T00:16:50;19.57;;;17.57;;
20884;SDS011;10602;48.000;9.654;2022-08-19T00:22:06;19.83;;;17.83;;
20884;SDS011;10602;48.000;9.654;2022-08-19T00:24:37;19.97;;;17.93;;
20884;SDS011;10602;48.000;9.654;2022-08-19T00:27:06;20.30;;;18.30;;
20884;SDS011;10602;48.000;9.654;2022-08-19T00:29:33;21.73;;;19.63;;
20884;SDS011;10602;48.000;9.654;2022-08-19T00:32:01;20.80;;;18.63;;
20884;SDS011;10602;48.000;9.654;2022-08-19T00:34:30;19.40;;;17.33;;
20884;SDS011;10602;48.000;9.654;2022-08-19T00:36:57;19.10;;;17.20;;
20884;SDS011;10602;48.000;9.654;2022-08-19T00:39:25;20.27;;;18.17;;
20884;SDS011;10602;48.000;9.654;2022-08-19T00:41:52;19.77;;;17.77;;
20884;SDS011;10602;48.000;9.654;2022-08-19T00:44:25;18.87;;;16.97;;
20884;SDS011;10602;48.000;9.654;2022-08-19T00:46:55;19.00;;;17.13;;
20884;SDS011;10602;48.000;9.654;2022-08-19T00:49:26;18.10;;;16.37;;
20884;SDS011;10602;48.000;9.654;2022-08-19T00:52:07;17.13;;;15.43;;
20884;SDS011;10602;48.000;9.654;2022-08-19T00:54:35;16.60;;;14.90;;
20884;SDS011;10602;48.000;9.654;2022-08-19T00:57:06;16.97;;;15.27;;
20884;SDS011;10602;48.000;9.654;2022-08-19T00:59:36;17.43;;;15.73;;
20884;SDS011;10602;48.000;9.654;2022-08-19T01:02:06;15.97;;;14.43;;
20884;SDS011;10602;48.000;9.654;2022-08-19T01:04:34;16.83;;;15.13;;
20884;SDS011;10602;48.000;9.654;2022-08-19T01:07:02;16.70;;;15.10;;
20884;SDS011;10602;48.000;9.654;2022-08-19T01:09:30;15.90;;;14.27;;
20884;SDS011;10602;48.000;9.654;2022-08-19T01:11:57;15.87;;;14.27;;
20884;SDS011;10602;48.000;9.654;2022-08-19T01:14:25;17.10;;;15.37;;
20884;SDS011;10602;48.000;9.654;2022-08-19T01:16:53;16.63;;;14.90;;
20884;SDS011;10602;48.000;9.654;2022-08-19T01:19:44;16.60;;;14.90;;
20884;SDS011;10602;48.000;9.654;2022-08-19T01:21:59;17.80;;;15.90;;
20884;SDS011;10602;48.000;9.654;2022-08-19T01:24:26;17.73;;;15.90;;
20884;SDS011;10602;48.000;9.654;2022-08-19T01:26:54;18.27;;;16.07;;
20884;SDS011;10602;48.000;9.654;2022-08-19T01:29:21;17.30;;;15.50;;
20884;SDS011;10602;48.000;9.654;2022-08-19T01:31:49;17.47;;;15.67;;
20884;SDS011;10602;48.000;9.654;2022-08-19T01:34:18;17.97;;;16.07;;
20884;SDS011;10602;48.000;9.654;2022-08-19T01:36:47;17.50;;;15.60;;
20884;SDS011;10602;48.000;9.654;2022-08-19T01:39:16;16.83;;;15.17;;
20884;SDS011;10602;48.000;9.654;2022-08-19T01:41:46;17.27;;;15.47;;
20884;SDS011;10602;48.000;9.654;2022-08-19T01:44:14;18.67;;;16.67;;
20884;SDS011;10602;48.000;9.654;2022-08-19T01:46:42;17.33;;;15.53;;
20884;SDS011;10602;48.000;9.654;2022-08-19T01:49:10;17.63;;;15.83;;
20884;SDS011;10602;48.000;9.654;2022-08-19T01:51:38;15.33;;;13.83;;
20884;SDS011;10602;48.000;9.654;2022-08-19T01:54:06;15.37;;;13.90;;
20884;SDS011;10602;48.000;9.654;2022-08-19T01:56:35;15.57;;;13.93;;
20884;SDS011;10602;48.000;9.654;2022-08-19T01:59:05;15.40;;;13.80;;
20884;SDS011;10602;48.000;9.654;2022-08-19T02:01:34;15.20;;;13.70;;
20884;SDS011;10602;48.000;9.654;2022-08-19T02:04:02;15.30;;;13.70;;
20884;SDS011;10602;48.000;9.654;2022-08-19T02:06:31;14.70;;;13.23;;
20884;SDS011;10602;48.000;9.654;2022-08-19T02:08:59;14.80;;;13.30;;
20884;SDS011;10602;48.000;9.654;2022-08-19T02:11:28;15.37;;;13.87;;
20884;SDS011;10602;48.000;9.654;2022-08-19T02:14:00;15.30;;;13.60;;
20884;SDS011;10602;48.000;9.654;2022-08-19T02:16:29;15.23;;;13.53;;
20884;SDS011;10602;48.000;9.654;2022-08-19T02:18:57;14.10;;;12.67;;
20884;SDS011;10602;48.000;9.654;2022-08-19T02:21:29;15.57;;;13.40;;
20884;SDS011;10602;48.000;9.654;2022-08-19T02:24:06;14.63;;;13.23;;
20884;SDS011;10602;48.000;9.654;2022-08-19T02:26:34;14.07;;;12.67;;
20884;SDS011;10602;48.000;9.654;2022-08-19T02:29:04;16.00;;;14.40;;
20884;SDS011;10602;48.000;9.654;2022-08-19T02:31:38;15.93;;;14.27;;
20884;SDS011;10602;48.000;9.654;2022-08-19T02:34:06;15.30;;;13.70;;
20884;SDS011;10602;48.000;9.654;2022-08-19T02:36:34;16.07;;;14.47;;
20884;SDS011;10602;48.000;9.654;2022-08-19T02:39:02;16.00;;;14.30;;
20884;SDS011;10602;48.000;9.654;2022-08-19T02:41:31;15.53;;;13.93;;
20884;SDS011;10602;48.000;9.654;2022-08-19T02:57:18;18.67;;;16.70;;
20884;SDS011;10602;48.000;9.654;2022-08-19T02:59:45;22.30;;;19.70;;
20884;SDS011;10602;48.000;9.654;2022-08-19T03:02:13;22.13;;;19.83;;
20884;SDS011;10602;48.000;9.654;2022-08-19T03:04:41;21.13;;;18.93;;
20884;SDS011;10602;48.000;9.654;2022-08-19T03:07:09;22.83;;;20.43;;
20884;SDS011;10602;48.000;9.654;2022-08-19T03:09:39;21.53;;;18.33;;
20884;SDS011;10602;48.000;9.654;2022-08-19T03:12:08;21.70;;;19.33;;
20884;SDS011;10602;48.000;9.654;2022-08-19T03:14:36;21.00;;;18.77;;
20884;SDS011;10602;48.000;9.654;2022-08-19T03:17:04;22.23;;;19.83;;
20884;SDS011;10602;48.000;9.654;2022-08-19T03:19:35;22.33;;;19.93;;
20884;SDS011;10602;48.000;9.654;2022-08-19T03:22:03;22.10;;;19.80;;
20884;SDS011;10602;48.000;9.654;2022-08-19T03:24:31;23.17;;;20.73;;
20884;SDS011;10602;48.000;9.654;2022-08-19T03:26:59;22.47;;;20.13;;
20884;SDS011;10602;48.000;9.654;2022-08-19T03:29:28;23.43;;;20.13;;
20884;SDS011;10602;48.000;9.654;2022-08-19T03:31:58;18.13;;;16.23;;
20884;SDS011;10602;48.000;9.654;2022-08-19T03:34:29;17.83;;;16.13;;
20884;SDS011;10602;48.000;9.654;2022-08-19T03:36:59;17.17;;;15.37;;
20884;SDS011;10602;48.000;9.654;2022-08-19T03:39:29;17.63;;;15.83;;
20884;SDS011;10602;48.000;9.654;2022-08-19T03:41:56;16.27;;;14.57;;
20884;SDS011;10602;48.000;9.654;2022-08-19T03:44:25;17.97;;;16.07;;
20884;SDS011;10602;48.000;9.654;2022-08-19T03:46:54;17.77;;;15.83;;
20884;SDS011;10602;48.000;9.654;2022-08-19T03:49:24;17.87;;;16.03;;
20884;SDS011;10602;48.000;9.654;2022-08-19T03:51:54;17.90;;;16.10;;
20884;SDS011;10602;48.000;9.654;2022-08-19T03:54:26;19.73;;;17.63;;
20884;SDS011;10602;48.000;9.654;2022-08-19T03:56:55;17.87;;;16.00;;
20884;SDS011;10602;48.000;9.654;2022-08-19T03:59:25;19.53;;;17.53;;
20884;SDS011;10602;48.000;9.654;2022-08-19T04:01:54;18.93;;;16.93;;
20884;SDS011;10602;48.000;9.654;2022-08-19T04:04:24;18.47;;;16.57;;
20884;SDS011;10602;48.000;9.654;2022-08-19T04:06:52;18.33;;;16.43;;
20884;SDS011;10602;48.000;9.654;2022-08-19T04:09:23;19.27;;;17.23;;
20884;SDS011;10602;48.000;9.654;2022-08-19T05:10:04;22.40;;;19.73;;
20884;SDS011;10602;48.000;9.654;2022-08-19T05:12:33;21.47;;;18.37;;
20884;SDS011;10602;48.000;9.654;2022-08-19T05:15:02;22.60;;;19.13;;
20884;SDS011;10602;48.000;9.654;2022-08-19T05:17:31;21.93;;;18.83;;
20884;SDS011;10602;48.000;9.654;2022-08-19T05:19:59;24.43;;;20.50;;
20884;SDS011;10602;48.000;9.654;2022-08-19T05:22:45;22.50;;;19.60;;
20884;SDS011;10602;48.000;9.654;2022-08-19T05:25:16;24.57;;;20.23;;
20884;SDS011;10602;48.000;9.654;2022-08-19T05:27:45;24.60;;;20.47;;
20884;SDS011;10602;48.000;9.654;2022-08-19T05:30:16;25.77;;;21.83;;
20884;SDS011;10602;48.000;9.654;2022-08-19T05:32:44;32.40;;;25.97;;
20884;SDS011;10602;48.000;9.654;2022-08-19T05:35:11;30.53;;;26.57;;
20884;SDS011;10602;48.000;9.654;2022-08-19T05:37:39;36.83;;;30.13;;
20884;SDS011;10602;48.000;9.654;2022-08-19T05:40:07;28.67;;;24.53;;
20884;SDS011;10602;48.000;9.654;2022-08-19T05:42:35;34.63;;;28.33;;
20884;SDS011;10602;48.000;9.654;2022-08-19T05:45:03;36.40;;;29.37;;
20884;SDS011;10602;48.000;9.654;2022-08-19T05:47:31;28.43;;;23.60;;
20884;SDS011;10602;48.000;9.654;2022-08-19T05:49:59;26.00;;;22.97;;
20884;SDS011;10602;48.000;9.654;2022-08-19T05:52:27;32.10;;;27.07;;
20884;SDS011;10602;48.000;9.654;2022-08-19T05:54:55;32.67;;;25.47;;
20884;SDS011;10602;48.000;9.654;2022-08-19T05:57:23;26.33;;;22.33;;
20884;SDS011;10602;48.000;9.654;2022-08-19T05:59:52;32.00;;;27.83;;
20884;SDS011;10602;48.000;9.654;2022-08-19T06:02:20;28.27;;;24.13;;
20884;SDS011;10602;48.000;9.654;2022-08-19T06:04:47;27.30;;;23.17;;
20884;SDS011;10602;48.000;9.654;2022-08-19T06:07:15;23.70;;;21.10;;
20884;SDS011;10602;48.000;9.654;2022-08-19T06:09:42;25.20;;;22.00;;
20884;SDS011;10602;48.000;9.654;2022-08-19T06:12:10;27.13;;;23.57;;
20884;SDS011;10602;48.000;9.654;2022-08-19T06:14:38;25.60;;;21.87;;
20884;SDS011;10602;48.000;9.654;2022-08-19T06:17:07;30.50;;;23.83;;
20884;SDS011;10602;48.000;9.654;2022-08-19T06:19:35;24.10;;;21.50;;
20884;SDS011;10602;48.000;9.654;2022-08-19T06:22:03;26.80;;;21.97;;
20884;SDS011;10602;48.000;9.654;2022-08-19T06:24:32;25.20;;;22.03;;
20884;SDS011;10602;48.000;9.654;2022-08-19T06:27:01;26.90;;;23.53;;
20884;SDS011;10602;48.000;9.654;2022-08-19T06:29:31;27.83;;;23.53;;
20884;SDS011;10602;48.000;9.654;2022-08-19T06:32:00;27.83;;;23.03;;
20884;SDS011;10602;48.000;9.654;2022-08-19T06:34:30;25.17;;;21.10;;
20884;SDS011;10602;48.000;9.654;2022-08-19T06:37:01;26.30;;;21.50;;
20884;SDS011;10602;48.000;9.654;2022-08-19T06:39:32;27.07;;;23.20;;
20884;SDS011;10602;48.000;9.654;2022-08-19T06:42:02;26.47;;;22.80;;
20884;SDS011;10602;48.000;9.654;2022-08-19T06:44:33;25.70;;;21.93;;
20884;SDS011;10602;48.000;9.654;2022-08-19T06:47:03;29.67;;;24.57;;
20884;SDS011;10602;48.000;9.654;2022-08-19T06:49:33;27.90;;;22.83;;
20884;SDS011;10602;48.000;9.654;2022-08-19T06:52:01;28.20;;;23.73;;
20884;SDS011;10602;48.000;9.654;2022-08-19T06:54:28;28.87;;;23.10;;
20884;SDS011;10602;48.000;9.654;2022-08-19T06:56:58;30.17;;;24.00;;
20884;SDS011;10602;48.000;9.654;2022-08-19T06:59:30;30.70;;;24.87;;
20884;SDS011;10602;48.000;9.654;2022-08-19T07:02:00;30.23;;;25.27;;
20884;SDS011;10602;48.000;9.654;2022-08-19T07:04:31;31.63;;;24.90;;
20884;SDS011;10602;48.000;9.654;2022-08-19T07:07:01;34.20;;;26.93;;
20884;SDS011;10602;48.000;9.654;2022-08-19T07:09:32;35.90;;;27.40;;
20884;SDS011;10602;48.000;9.654;2022-08-19T07:12:03;32.77;;;26.97;;
20884;SDS011;10602;48.000;9.654;2022-08-19T07:14:32;41.53;;;32.33;;
20884;SDS011;10602;48.000;9.654;2022-08-19T07:17:04;34.03;;;28.27;;
20884;SDS011;10602;48.000;9.654;2022-08-19T07:19:34;32.87;;;24.80;;
20884;SDS011;10602;48.000;9.654;2022-08-19T07:22:04;34.87;;;27.70;;
20884;SDS011;10602;48.000;9.654;2022-08-19T07:24:34;36.07;;;26.97;;
20884;SDS011;10602;48.000;9.654;2022-08-19T07:27:03;30.97;;;25.83;;
20884;SDS011;10602;48.000;9.654;2022-08-19T07:29:33;33.37;;;28.47;;
20884;SDS011;10602;48.000;9.654;2022-08-19T07:32:02;33.00;;;27.43;;
20884;SDS011;10602;48.000;9.654;2022-08-19T07:34:31;31.03;;;25.80;;
20884;SDS011;10602;48.000;9.654;2022-08-19T07:37:01;35.03;;;27.77;;
20884;SDS011;10602;48.000;9.654;2022-08-19T07:39:30;34.40;;;27.47;;
20884;SDS011;10602;48.000;9.654;2022-08-19T07:44:58;31.10;;;26.20;;
20884;SDS011;10602;48.000;9.654;2022-08-19T07:47:30;31.00;;;25.80;;
20884;SDS011;10602;48.000;9.654;2022-08-19T07:50:10;33.67;;;26.87;;
20884;SDS011;10602;48.000;9.654;2022-08-19T07:52:45;31.73;;;25.53;;
20884;SDS011;10602;48.000;9.654;2022-08-19T07:55:37;30.60;;;25.67;;
20884;SDS011;10602;48.000;9.654;2022-08-19T07:58:04;30.47;;;26.07;;
20884;SDS011;10602;48.000;9.654;2022-08-19T08:00:32;33.23;;;26.13;;
20884;SDS011;10602;48.000;9.654;2022-08-19T08:03:01;31.00;;;25.37;;
20884;SDS011;10602;48.000;9.654;2022-08-19T08:05:28;27.70;;;24.67;;
20884;SDS011;10602;48.000;9.654;2022-08-19T08:08:14;31.33;;;25.07;;
20884;SDS011;10602;48.000;9.654;2022-08-19T08:11:00;33.03;;;27.37;;
20884;SDS011;10602;48.000;9.654;2022-08-19T08:13:27;35.67;;;28.17;;
20884;SDS011;10602;48.000;9.654;2022-08-19T08:15:56;33.10;;;26.83;;
20884;SDS011;10602;48.000;9.654;2022-08-19T08:18:24;35.47;;;29.17;;
20884;SDS011;10602;48.000;9.654;2022-08-19T08:20:52;33.33;;;27.17;;
20884;SDS011;10602;48.000;9.654;2022-08-19T08:23:20;31.00;;;25.13;;
20884;SDS011;10602;48.000;9.654;2022-08-19T08:25:51;32.53;;;25.33;;
20884;SDS011;10602;48.000;9.654;2022-08-19T08:28:20;32.03;;;26.70;;
20884;SDS011;10602;48.000;9.654;2022-08-19T08:30:49;34.10;;;27.50;;
20884;SDS011;10602;48.000;9.654;2022-08-19T08:33:21;30.07;;;24.50;;
20884;SDS011;10602;48.000;9.654;2022-08-19T08:35:50;35.93;;;29.53;;
20884;SDS011;10602;48.000;9.654;2022-08-19T08:38:18;33.37;;;25.97;;
20884;SDS011;10602;48.000;9.654;2022-08-19T08:40:47;32.17;;;27.50;;
20884;SDS011;10602;48.000;9.654;2022-08-19T08:43:23;31.37;;;26.17;;
20884;SDS011;10602;48.000;9.654;2022-08-19T08:46:07;31.33;;;27.27;;
20884;SDS011;10602;48.000;9.654;2022-08-19T08:51:28;34.03;;;28.13;;
20884;SDS011;10602;48.000;9.654;2022-08-19T08:53:52;32.27;;;26.50;;
20884;SDS011;10602;48.000;9.654;2022-08-19T08:56:22;32.97;;;28.03;;
20884;SDS011;10602;48.000;9.654;2022-08-19T08:59:00;30.90;;;26.23;;
20884;SDS011;10602;48.000;9.654;2022-08-19T09:01:34;33.13;;;26.07;;
20884;SDS011;10602;48.000;9.654;2022-08-19T09:04:03;32.10;;;26.17;;
20884;SDS011;10602;48.000;9.654;2022-08-19T09:09:20;32.83;;;27.30;;
20884;SDS011;10602;48.000;9.654;2022-08-19T09:15:00;31.23;;;26.17;;
20884;SDS011;10602;48.000;9.654;2022-08-19T09:17:26;35.63;;;28.37;;
20884;SDS011;10602;48.000;9.654;2022-08-19T09:20:01;42.43;;;35.47;;
20884;SDS011;10602;48.000;9.654;2022-08-19T09:22:48;29.73;;;25.77;;
20884;SDS011;10602;48.000;9.654;2022-08-19T09:25:18;31.90;;;27.33;;
20884;SDS011;10602;48.000;9.654;2022-08-19T09:27:50;28.63;;;24.70;;
20884;SDS011;10602;48.000;9.654;2022-08-19T09:30:25;28.83;;;24.47;;
20884;SDS011;10602;48.000;9.654;2022-08-19T09:32:54;27.83;;;23.50;;
20884;SDS011;10602;48.000;9.654;2022-08-19T09:35:24;29.67;;;24.90;;
20884;SDS011;10602;48.000;9.654;2022-08-19T09:37:55;26.00;;;22.40;;
20884;SDS011;10602;48.000;9.654;2022-08-19T09:40:23;26.47;;;20.87;;
20884;SDS011;10602;48.000;9.654;2022-08-19T09:42:52;24.67;;;21.87;;
20884;SDS011;10602;48.000;9.654;2022-08-19T09:45:21;26.23;;;22.27;;
20884;SDS011;10602;48.000;9.654;2022-08-19T09:47:49;22.40;;;20.00;;
20884;SDS011;10602;48.000;9.654;2022-08-19T09:50:22;22.43;;;19.50;;
20884;SDS011;10602;48.000;9.654;2022-08-19T09:52:52;25.40;;;19.67;;
20884;SDS011;10602;48.000;9.654;2022-08-19T09:55:20;27.87;;;23.00;;
20884;SDS011;10602;48.000;9.654;2022-08-19T09:57:47;21.77;;;19.43;;
20884;SDS011;10602;48.000;9.654;2022-08-19T10:00:16;25.07;;;21.40;;
20884;SDS011;10602;48.000;9.654;2022-08-19T10:02:45;22.60;;;20.10;;
20884;SDS011;10602;48.000;9.654;2022-08-19T10:05:13;20.47;;;17.90;;
20884;SDS011;10602;48.000;9.654;2022-08-19T10:07:58;23.80;;;20.27;;
20884;SDS011;10602;48.000;9.654;2022-08-19T10:10:27;22.83;;;19.83;;
20884;SDS011;10602;48.000;9.654;2022-08-19T10:12:54;24.47;;;20.17;;
20884;SDS011;10602;48.000;9.654;2022-08-19T10:15:22;25.03;;;22.17;;
20884;SDS011;10602;48.000;9.654;2022-08-19T10:17:49;25.83;;;20.97;;
20884;SDS011;10602;48.000;9.654;2022-08-19T10:20:17;21.20;;;18.93;;
20884;SDS011;10602;48.000;9.654;2022-08-19T10:22:44;21.20;;;18.90;;
20884;SDS011;10602;48.000;9.654;2022-08-19T10:25:12;20.50;;;18.30;;
20884;SDS011;10602;48.000;9.654;2022-08-19T10:27:40;22.87;;;20.33;;
20884;SDS011;10602;48.000;9.654;2022-08-19T10:30:07;21.70;;;19.40;;
20884;SDS011;10602;48.000;9.654;2022-08-19T10:32:36;21.13;;;18.93;;
20884;SDS011;10602;48.000;9.654;2022-08-19T10:35:03;20.20;;;18.07;;
20884;SDS011;10602;48.000;9.654;2022-08-19T10:37:35;20.80;;;18.60;;
20884;SDS011;10602;48.000;9.654;2022-08-19T10:40:04;23.33;;;20.93;;
20884;SDS011;10602;48.000;9.654;2022-08-19T10:42:34;20.50;;;17.90;;
20884;SDS011;10602;48.000;9.654;2022-08-19T10:45:02;33.63;;;28.07;;
20884;SDS011;10602;48.000;9.654;2022-08-19T10:47:32;19.27;;;17.17;;
20884;SDS011;10602;48.000;9.654;2022-08-19T10:50:00;24.30;;;20.70;;
20884;SDS011;10602;48.000;9.654;2022-08-19T10:52:47;25.00;;;21.03;;
20884;SDS011;10602;48.000;9.654;2022-08-19T10:55:22;21.73;;;19.40;;
20884;SDS011;10602;48.000;9.654;2022-08-19T10:58:12;18.93;;;16.00;;
20884;SDS011;10602;48.000;9.654;2022-08-19T11:00:50;26.30;;;23.20;;
20884;SDS011;10602;48.000;9.654;2022-08-19T11:03:21;20.50;;;17.63;;
20884;SDS011;10602;48.000;9.654;2022-08-19T11:05:57;18.50;;;16.13;;
20884;SDS011;10602;48.000;9.654;2022-08-19T11:11:50;18.07;;;16.13;;
20884;SDS011;10602;48.000;9.654;2022-08-19T11:14:19;20.67;;;17.70;;
20884;SDS011;10602;48.000;9.654;2022-08-19T11:16:48;16.67;;;14.73;;
20884;SDS011;10602;48.000;9.654;2022-08-19T11:19:17;18.23;;;16.33;;
20884;SDS011;10602;48.000;9.654;2022-08-19T11:21:47;16.23;;;14.53;;
20884;SDS011;10602;48.000;9.654;2022-08-19T11:24:24;17.87;;;15.97;;
20884;SDS011;10602;48.000;9.654;2022-08-19T11:26:54;16.13;;;14.37;;
20884;SDS011;10602;48.000;9.654;2022-08-19T11:37:12;21.07;;;18.70;;
20884;SDS011;10602;48.000;9.654;2022-08-19T11:39:41;23.60;;;20.80;;
20884;SDS011;10602;48.000;9.654;2022-08-19T11:42:09;14.40;;;13.00;;
20884;SDS011;10602;48.000;9.654;2022-08-19T11:44:55;32.47;;;27.37;;
20884;SDS011;10602;48.000;9.654;2022-08-19T11:47:25;17.23;;;15.43;;
20884;SDS011;10602;48.000;9.654;2022-08-19T11:49:52;16.03;;;14.33;;
20884;SDS011;10602;48.000;9.654;2022-08-19T11:52:21;13.73;;;12.33;;
20884;SDS011;10602;48.000;9.654;2022-08-19T11:54:49;21.50;;;18.00;;
20884;SDS011;10602;48.000;9.654;2022-08-19T11:57:16;13.43;;;12.03;;
20884;SDS011;10602;48.000;9.654;2022-08-19T11:59:49;13.07;;;11.73;;
20884;SDS011;10602;48.000;9.654;2022-08-19T12:02:21;12.80;;;11.50;;
20884;SDS011;10602;48.000;9.654;2022-08-19T12:04:49;12.10;;;10.80;;
20884;SDS011;10602;48.000;9.654;2022-08-19T12:07:16;12.37;;;11.07;;
20884;SDS011;10602;48.000;9.654;2022-08-19T12:09:44;10.97;;;9.87;;
20884;SDS011;10602;48.000;9.654;2022-08-19T12:12:12;11.73;;;10.53;;
20884;SDS011;10602;48.000;9.654;2022-08-19T12:14:39;10.07;;;9.00;;
20884;SDS011;10602;48.000;9.654;2022-08-19T12:17:07;12.53;;;11.23;;
20884;SDS011;10602;48.000;9.654;2022-08-19T12:19:36;11.50;;;10.40;;
20884;SDS011;10602;48.000;9.654;2022-08-19T12:22:04;11.10;;;9.97;;
20884;SDS011;10602;48.000;9.654;2022-08-19T12:24:33;11.17;;;10.13;;
20884;SDS011;10602;48.000;9.654;2022-08-19T12:27:01;10.80;;;9.67;;
20884;SDS011;10602;48.000;9.654;2022-08-19T12:29:29;10.70;;;9.60;;
20884;SDS011;10602;48.000;9.654;2022-08-19T12:31:57;11.97;;;10.80;;
20884;SDS011;10602;48.000;9.654;2022-08-19T12:34:28;9.90;;;8.93;;
20884;SDS011;10602;48.000;9.654;2022-08-19T12:37:01;9.87;;;8.90;;
20884;SDS011;10602;48.000;9.654;2022-08-19T12:39:38;9.93;;;8.93;;
20884;SDS011;10602;48.000;9.654;2022-08-19T12:42:08;9.80;;;8.80;;
20884;SDS011;10602;48.000;9.654;2022-08-19T12:44:41;9.63;;;8.57;;
20884;SDS011;10602;48.000;9.654;2022-08-19T12:47:10;9.20;;;8.00;;
20884;SDS011;10602;48.000;9.654;2022-08-19T12:49:41;8.90;;;8.00;;
20884;SDS011;10602;48.000;9.654;2022-08-19T12:52:10;9.00;;;8.10;;
20884;SDS011;10602;48.000;9.654;2022-08-19T12:54:39;8.97;;;8.10;;
20884;SDS011;10602;48.000;9.654;2022-08-19T12:57:09;9.07;;;8.17;;
20884;SDS011;10602;48.000;9.654;2022-08-19T12:59:38;8.30;;;7.57;;
20884;SDS011;10602;48.000;9.654;2022-08-19T13:02:09;8.60;;;7.80;;
20884;SDS011;10602;48.000;9.654;2022-08-19T13:07:14;8.30;;;7.50;;
20884;SDS011;10602;48.000;9.654;2022-08-19T13:09:42;7.10;;;6.40;;
20884;SDS011;10602;48.000;9.654;2022-08-19T13:12:10;6.93;;;6.30;;
20884;SDS011;10602;48.000;9.654;2022-08-19T13:14:39;6.40;;;5.80;;
20884;SDS011;10602;48.000;9.654;2022-08-19T13:17:07;6.33;;;5.73;;
20884;SDS011;10602;48.000;9.654;2022-08-19T13:19:37;5.90;;;5.30;;
20884;SDS011;10602;48.000;9.654;2022-08-19T13:22:05;6.20;;;5.60;;
20884;SDS011;10602;48.000;9.654;2022-08-19T13:24:33;5.80;;;5.30;;
20884;SDS011;10602;48.000;9.654;2022-08-19T13:27:02;5.90;;;5.30;;
20884;SDS011;10602;48.000;9.654;2022-08-19T13:29:30;5.37;;;4.87;;
20884;SDS011;10602;48.000;9.654;2022-08-19T13:32:15;5.83;;;5.23;;
20884;SDS011;10602;48.000;9.654;2022-08-19T13:35:01;5.50;;;4.93;;
20884;SDS011;10602;48.000;9.654;2022-08-19T13:37:30;6.00;;;5.40;;
20884;SDS011;10602;48.000;9.654;2022-08-19T13:40:16;5.53;;;5.03;;
20884;SDS011;10602;48.000;9.654;2022-08-19T13:42:43;5.97;;;5.47;;
20884;SDS011;10602;48.000;9.654;2022-08-19T13:45:21;5.70;;;5.20;;
20884;SDS011;10602;48.000;9.654;2022-08-19T13:47:46;7.00;;;6.33;;
20884;SDS011;10602;48.000;9.654;2022-08-19T13:50:17;7.93;;;7.17;;
20884;SDS011;10602;48.000;9.654;2022-08-19T13:52:47;8.20;;;7.50;;
20884;SDS011;10602;48.000;9.654;2022-08-19T13:55:15;8.80;;;7.67;;
20884;SDS011;10602;48.000;9.654;2022-08-19T13:57:43;9.40;;;7.93;;
20884;SDS011;10602;48.000;9.654;2022-08-19T14:00:14;9.43;;;8.53;;
20884;SDS011;10602;48.000;9.654;2022-08-19T14:02:44;9.00;;;8.20;;
20884;SDS011;10602;48.000;9.654;2022-08-19T14:05:14;8.73;;;7.93;;
20884;SDS011;10602;48.000;9.654;2022-08-19T14:07:43;9.43;;;8.53;;
20884;SDS011;10602;48.000;9.654;2022-08-19T14:10:11;9.90;;;8.90;;
20884;SDS011;10602;48.000;9.654;2022-08-19T14:12:39;10.43;;;9.30;;
20884;SDS011;10602;48.000;9.654;2022-08-19T14:15:08;11.03;;;10.03;;
20884;SDS011;10602;48.000;9.654;2022-08-19T14:17:43;10.97;;;9.80;;
20884;SDS011;10602;48.000;9.654;2022-08-19T14:20:07;11.20;;;10.10;;
20884;SDS011;10602;48.000;9.654;2022-08-19T14:22:37;11.27;;;10.07;;
20884;SDS011;10602;48.000;9.654;2022-08-19T14:25:12;11.70;;;10.50;;
20884;SDS011;10602;48.000;9.654;2022-08-19T14:27:37;12.40;;;11.20;;
20884;SDS011;10602;48.000;9.654;2022-08-19T14:30:07;12.63;;;11.43;;
20884;SDS011;10602;48.000;9.654;2022-08-19T14:32:36;12.27;;;10.97;;
20884;SDS011;10602;48.000;9.654;2022-08-19T14:35:04;12.20;;;11.00;;
20884;SDS011;10602;48.000;9.654;2022-08-19T14:37:33;12.40;;;11.17;;
20884;SDS011;10602;48.000;9.654;2022-08-19T14:40:03;12.50;;;11.20;;
20884;SDS011;10602;48.000;9.654;2022-08-19T14:42:30;12.63;;;11.33;;
20884;SDS011;10602;48.000;9.654;2022-08-19T14:44:58;12.87;;;11.43;;
20884;SDS011;10602;48.000;9.654;2022-08-19T14:47:26;14.57;;;13.23;;
20884;SDS011;10602;48.000;9.654;2022-08-19T14:49:54;14.97;;;13.57;;
20884;SDS011;10602;48.000;9.654;2022-08-19T14:52:22;14.60;;;13.13;;
20884;SDS011;10602;48.000;9.654;2022-08-19T14:54:49;14.60;;;13.20;;
20884;SDS011;10602;48.000;9.654;2022-08-19T14:57:17;14.50;;;13.20;;
20884;SDS011;10602;48.000;9.654;2022-08-19T14:59:45;14.90;;;13.50;;
20884;SDS011;10602;48.000;9.654;2022-08-19T15:02:12;14.27;;;12.97;;
20884;SDS011;10602;48.000;9.654;2022-08-19T15:04:40;14.80;;;13.40;;
20884;SDS011;10602;48.000;9.654;2022-08-19T15:07:07;16.33;;;14.77;;
20884;SDS011;10602;48.000;9.654;2022-08-19T15:09:35;15.37;;;13.97;;
20884;SDS011;10602;48.000;9.654;2022-08-19T15:12:02;16.47;;;14.87;;
20884;SDS011;10602;48.000;9.654;2022-08-19T15:14:30;16.70;;;15.00;;
20884;SDS011;10602;48.000;9.654;2022-08-19T15:17:04;17.33;;;15.53;;
20884;SDS011;10602;48.000;9.654;2022-08-19T15:19:32;16.17;;;14.67;;
20884;SDS011;10602;48.000;9.654;2022-08-19T15:22:01;14.57;;;13.13;;
20884;SDS011;10602;48.000;9.654;2022-08-19T15:24:29;13.70;;;12.40;;
20884;SDS011;10602;48.000;9.654;2022-08-19T15:26:56;13.53;;;12.30;;
20884;SDS011;10602;48.000;9.654;2022-08-19T15:29:24;15.60;;;14.10;;
20884;SDS011;10602;48.000;9.654;2022-08-19T15:31:53;15.70;;;14.03;;
20884;SDS011;10602;48.000;9.654;2022-08-19T15:34:22;15.93;;;14.33;;
20884;SDS011;10602;48.000;9.654;2022-08-19T15:36:51;16.10;;;14.60;;
20884;SDS011;10602;48.000;9.654;2022-08-19T15:39:19;16.10;;;14.50;;
20884;SDS011;10602;48.000;9.654;2022-08-19T15:41:47;16.97;;;15.33;;
20884;SDS011;10602;48.000;9.654;2022-08-19T15:44:15;18.43;;;16.63;;
20884;SDS011;10602;48.000;9.654;2022-08-19T15:46:47;19.17;;;17.17;;
20884;SDS011;10602;48.000;9.654;2022-08-19T15:49:15;16.87;;;15.27;;
20884;SDS011;10602;48.000;9.654;2022-08-19T15:51:45;18.33;;;16.53;;
20884;SDS011;10602;48.000;9.654;2022-08-19T15:54:15;19.17;;;17.37;;
20884;SDS011;10602;48.000;9.654;2022-08-19T15:56:46;19.13;;;17.33;;
20884;SDS011;10602;48.000;9.654;2022-08-19T15:59:34;19.13;;;17.33;;
20884;SDS011;10602;48.000;9.654;2022-08-19T16:02:22;18.50;;;16.70;;
20884;SDS011;10602;48.000;9.654;2022-08-19T16:05:12;19.73;;;17.83;;
20884;SDS011;10602;48.000;9.654;2022-08-19T16:07:58;19.90;;;17.90;;
20884;SDS011;10602;48.000;9.654;2022-08-19T16:10:26;19.67;;;17.87;;
20884;SDS011;10602;48.000;9.654;2022-08-19T16:12:58;19.97;;;18.07;;
20884;SDS011;10602;48.000;9.654;2022-08-19T16:15:28;20.67;;;18.67;;
20884;SDS011;10602;48.000;9.654;2022-08-19T16:17:53;19.80;;;17.90;;
20884;SDS011;10602;48.000;9.654;2022-08-19T16:20:21;20.83;;;18.83;;